Rosehill, Kansas
Current Conditions -  °F | °C
As of 6:23 AM on Saturday 25 Oct 2014 (Local Time) from KIAB Reporting Station
Haze Haze  
Wind Chill: 57°   Ceiling: Unl
Heat Index: 57°   Visibility: 5mi
Dew Point: 57°   Wind: 5mph
Humidity: 100%   Direction: 140°SE
Pressure: 30.04"   Gusts: NA
Location:  37.5599°N, 97.0971°W
Report Text: KIAB 251123Z AUTO 14004KT 5SM R19/4500FT BR CLR 14/14 A3004 RMK AO2
Loading
Personal Weather Stations






























Interactive Weather Map
Tropical Storm Tracking
New forecast layout! Learn more

10-Day Weather Forecast

Advertisements
Track Severe Weather on mobile